createdAt,value
2023-04-24T00:02:21.865Z,2.67
2023-04-24T00:04:50.305Z,2.90
2023-04-24T00:07:18.381Z,2.78
2023-04-24T00:09:45.868Z,2.75
2023-04-24T00:12:13.243Z,3.15
2023-04-24T00:14:40.464Z,3.25
2023-04-24T00:17:07.610Z,3.40
2023-04-24T00:19:34.856Z,3.58
2023-04-24T00:22:02.098Z,2.90
2023-04-24T00:24:29.270Z,3.58
2023-04-24T00:26:56.358Z,2.97
2023-04-24T00:29:23.488Z,3.55
2023-04-24T00:31:50.787Z,3.47
2023-04-24T00:34:17.989Z,3.05
2023-04-24T00:36:45.034Z,3.20
2023-04-24T00:39:12.207Z,3.20
2023-04-24T00:41:39.226Z,3.05
2023-04-24T00:44:06.360Z,3.10
2023-04-24T00:46:33.611Z,3.40
2023-04-24T00:49:00.934Z,2.78
2023-04-24T00:51:28.561Z,3.38
2023-04-24T00:53:55.817Z,2.95
2023-04-24T00:56:23.094Z,3.22
2023-04-24T00:58:51.124Z,3.20
2023-04-24T01:01:21.892Z,3.20
2023-04-24T01:03:52.182Z,3.05
2023-04-24T01:06:21.052Z,3.95
2023-04-24T01:08:49.174Z,2.72
2023-04-24T01:11:16.525Z,3.10
2023-04-24T01:13:45.700Z,3.20
2023-04-24T01:16:12.912Z,3.22
2023-04-24T01:18:40.041Z,2.88
2023-04-24T01:21:09.699Z,3.22
2023-04-24T01:23:36.942Z,2.80
2023-04-24T01:26:04.217Z,3.50
2023-04-24T01:28:31.601Z,2.72
2023-04-24T01:30:59.193Z,2.70
2023-04-24T01:33:26.952Z,2.88
2023-04-24T01:35:54.693Z,2.60
2023-04-24T01:38:24.530Z,2.72
2023-04-24T01:40:52.535Z,2.75
2023-04-24T01:43:19.720Z,3.03
2023-04-24T01:45:46.956Z,2.85
2023-04-24T01:48:14.427Z,2.42
2023-04-24T01:50:41.758Z,2.65
2023-04-24T01:53:08.907Z,2.45
2023-04-24T01:55:36.877Z,2.40
2023-04-24T01:58:04.198Z,2.72
2023-04-24T02:00:31.640Z,3.38
2023-04-24T02:03:00.504Z,2.88
2023-04-24T02:05:28.474Z,3.28
2023-04-24T02:07:56.406Z,3.30
2023-04-24T02:10:23.990Z,2.92
2023-04-24T02:12:51.070Z,2.58
2023-04-24T02:15:19.092Z,2.88
2023-04-24T02:17:46.387Z,2.67
2023-04-24T02:20:13.608Z,2.67
2023-04-24T02:22:40.834Z,2.90
2023-04-24T02:25:09.209Z,2.78
2023-04-24T02:27:36.293Z,3.00
2023-04-24T02:30:07.678Z,2.63
2023-04-24T02:32:35.898Z,3.03
2023-04-24T02:35:03.134Z,3.72
2023-04-24T02:37:30.232Z,3.00
2023-04-24T02:39:57.347Z,2.83
2023-04-24T02:42:25.353Z,2.80
2023-04-24T02:44:52.613Z,3.10
2023-04-24T02:47:19.747Z,2.70
2023-04-24T02:49:46.915Z,3.20
2023-04-24T02:52:14.415Z,3.03
2023-04-24T02:54:41.405Z,3.92
2023-04-24T02:57:08.454Z,3.05
2023-04-24T02:59:35.779Z,2.38
2023-04-24T03:02:02.899Z,2.67
2023-04-24T03:04:30.111Z,2.70
2023-04-24T03:06:57.511Z,3.30
2023-04-24T03:09:24.754Z,2.83
2023-04-24T03:11:51.984Z,3.17
2023-04-24T03:14:19.072Z,2.55
2023-04-24T03:16:46.204Z,3.10
2023-04-24T03:19:13.784Z,2.70
2023-04-24T03:21:58.502Z,2.85
2023-04-24T03:24:25.925Z,2.45
2023-04-24T03:26:52.995Z,2.70
2023-04-24T03:29:40.096Z,2.75
2023-04-24T03:32:07.323Z,2.65
2023-04-24T03:34:36.044Z,2.50
2023-04-24T03:37:03.344Z,2.72
2023-04-24T03:39:31.770Z,3.17
2023-04-24T03:41:58.956Z,3.13
2023-04-24T03:44:37.504Z,2.33
2023-04-24T03:47:04.964Z,2.85
2023-04-24T03:49:33.013Z,2.80
2023-04-24T03:52:00.241Z,2.75
2023-04-24T03:54:28.731Z,3.13
2023-04-24T03:56:55.810Z,2.70
2023-04-24T03:59:24.380Z,2.55
2023-04-24T04:02:05.812Z,3.33
2023-04-24T04:04:33.362Z,3.63
2023-04-24T04:07:02.411Z,3.80
2023-04-24T04:09:29.747Z,3.60
2023-04-24T04:11:56.911Z,4.05
2023-04-24T04:14:24.580Z,4.50
2023-04-24T04:16:54.740Z,5.40
2023-04-24T04:19:24.589Z,5.13
2023-04-24T04:21:54.546Z,4.75
2023-04-24T04:24:44.250Z,4.63
2023-04-24T04:27:12.196Z,4.60
2023-04-24T04:30:06.869Z,4.93
2023-04-24T04:32:42.182Z,3.85
2023-04-24T04:35:10.603Z,4.82
2023-04-24T04:37:37.928Z,5.07
2023-04-24T04:40:23.909Z,4.55
2023-04-24T04:42:57.436Z,4.55
2023-04-24T04:45:28.223Z,6.20
2023-04-24T04:48:32.557Z,5.75
2023-04-24T04:51:01.923Z,4.72
2023-04-24T04:53:29.459Z,4.90
2023-04-24T04:55:57.270Z,5.05
2023-04-24T04:58:29.024Z,5.05
2023-04-24T05:00:59.764Z,5.63
2023-04-24T05:03:32.016Z,4.97
2023-04-24T05:06:04.382Z,4.78
2023-04-24T05:08:34.874Z,5.07
2023-04-24T05:11:04.218Z,5.18
2023-04-24T05:13:39.732Z,5.50
2023-04-24T05:16:22.983Z,4.97
2023-04-24T05:18:53.482Z,4.78
2023-04-24T05:21:26.403Z,5.03
2023-04-24T05:23:53.718Z,5.20
2023-04-24T05:26:41.048Z,4.95
2023-04-24T05:29:09.206Z,5.00
2023-04-24T05:31:36.703Z,6.07
2023-04-24T05:34:04.064Z,5.38
2023-04-24T05:36:32.081Z,5.03
2023-04-24T05:38:59.142Z,5.38
2023-04-24T05:41:27.140Z,6.30
2023-04-24T05:43:55.652Z,5.50
2023-04-24T05:46:22.970Z,5.10
2023-04-24T05:48:51.065Z,5.50
2023-04-24T05:51:18.944Z,5.38
2023-04-24T05:53:48.573Z,5.57
2023-04-24T05:56:43.129Z,6.00
2023-04-24T05:59:37.519Z,6.13
2023-04-24T06:02:11.949Z,6.63
2023-04-24T06:04:46.499Z,5.85
2023-04-24T06:07:35.214Z,5.80
2023-04-24T06:10:23.694Z,6.07
2023-04-24T06:12:57.552Z,5.65
2023-04-24T06:15:36.953Z,6.20
2023-04-24T06:18:12.622Z,6.25
2023-04-24T06:20:50.535Z,6.70
2023-04-24T06:23:31.351Z,5.72
2023-04-24T06:26:01.519Z,5.85
2023-04-24T06:28:39.049Z,6.65
2023-04-24T06:31:09.103Z,6.65
2023-04-24T06:33:42.171Z,5.75
2023-04-24T06:36:13.859Z,7.07
2023-04-24T06:38:47.765Z,6.53
2023-04-24T06:41:16.607Z,6.82
2023-04-24T06:44:10.514Z,6.43
2023-04-24T06:46:48.079Z,7.20
2023-04-24T06:49:18.742Z,6.50
2023-04-24T06:51:49.576Z,6.95
2023-04-24T06:54:17.549Z,6.20
2023-04-24T06:56:53.655Z,6.00
2023-04-24T06:59:21.545Z,6.63
2023-04-24T07:01:55.226Z,7.35
2023-04-24T07:04:31.613Z,6.03
2023-04-24T07:07:02.158Z,6.63
2023-04-24T07:09:33.648Z,6.57
2023-04-24T07:12:11.912Z,6.88
2023-04-24T07:14:42.802Z,6.43
2023-04-24T07:17:10.368Z,7.28
2023-04-24T07:19:49.014Z,6.47
2023-04-24T07:22:19.975Z,6.97
2023-04-24T07:24:56.986Z,7.15
2023-04-24T07:27:31.037Z,7.20
2023-04-24T07:30:15.865Z,7.10
2023-04-24T07:32:53.771Z,8.48
2023-04-24T07:35:26.949Z,6.18
2023-04-24T07:38:13.605Z,5.32
2023-04-24T07:40:53.238Z,5.68
2023-04-24T07:43:35.162Z,6.03
2023-04-24T07:46:11.648Z,5.15
2023-04-24T07:48:39.175Z,6.40
2023-04-24T07:51:14.547Z,5.03
2023-04-24T07:53:54.044Z,5.20
2023-04-24T07:56:43.212Z,6.45
2023-04-24T07:59:16.646Z,5.30
2023-04-24T08:01:55.845Z,4.97
2023-04-24T08:04:41.403Z,5.55
2023-04-24T08:07:22.793Z,5.05
2023-04-24T08:09:56.353Z,4.55
2023-04-24T08:12:32.883Z,5.15
2023-04-24T08:15:25.704Z,5.03
2023-04-24T08:18:00.699Z,5.10
2023-04-24T08:20:38.226Z,6.00
2023-04-24T08:23:08.884Z,5.30
2023-04-24T08:25:46.145Z,5.22
2023-04-24T08:28:21.549Z,6.40
2023-04-24T08:30:58.641Z,4.03
2023-04-24T08:33:38.255Z,4.53
2023-04-24T08:36:12.209Z,5.20
2023-04-24T08:39:11.058Z,5.00
2023-04-24T08:41:46.565Z,5.38
2023-04-24T08:44:44.955Z,5.53
2023-04-24T08:47:25.098Z,5.35
2023-04-24T08:50:19.043Z,5.75
2023-04-24T08:52:58.526Z,4.65
2023-04-24T08:55:51.525Z,6.63
2023-04-24T08:58:34.578Z,6.20
2023-04-24T09:01:40.332Z,4.93
2023-04-24T09:04:19.571Z,4.80
2023-04-24T09:06:51.165Z,4.55
2023-04-24T09:09:34.968Z,5.03
2023-04-24T09:12:15.198Z,3.88
2023-04-24T09:14:58.817Z,4.78
2023-04-24T09:17:30.019Z,4.38
2023-04-24T09:20:03.582Z,4.20
2023-04-24T09:25:16.505Z,2.97
2023-04-24T09:28:04.150Z,4.03
2023-04-24T09:30:42.492Z,3.85
2023-04-24T09:33:26.560Z,3.83
2023-04-24T09:38:45.541Z,4.30
2023-04-24T09:41:19.870Z,3.53
2023-04-24T09:43:47.274Z,3.15
2023-04-24T09:46:25.700Z,4.43
2023-04-24T09:48:56.099Z,4.82
2023-04-24T09:51:40.772Z,5.38
2023-04-24T09:54:33.967Z,4.40
2023-04-24T09:57:17.431Z,4.47
2023-04-24T09:59:56.001Z,4.30
2023-04-24T10:02:40.668Z,3.72
2023-04-24T10:05:26.052Z,4.72
2023-04-24T10:08:09.425Z,3.80
2023-04-24T10:10:46.341Z,3.50
2023-04-24T10:13:23.440Z,4.30
2023-04-24T10:16:10.055Z,4.45
2023-04-24T10:19:17.415Z,4.68
2023-04-24T10:22:13.569Z,5.15
2023-04-24T10:24:59.558Z,4.80
2023-04-24T10:27:43.546Z,4.28
2023-04-24T10:30:33.606Z,4.82
2023-04-24T10:33:17.456Z,4.45
2023-04-24T10:35:54.375Z,4.72
2023-04-24T10:38:41.240Z,4.32
2023-04-24T10:41:25.493Z,4.85
2023-04-24T10:44:28.088Z,3.33
2023-04-24T10:47:01.737Z,3.75
2023-04-24T10:49:42.473Z,3.58
2023-04-24T10:52:14.742Z,3.63
2023-04-24T10:58:06.765Z,4.03
2023-04-24T11:04:42.908Z,3.97
2023-04-24T11:07:30.206Z,3.65
2023-04-24T11:10:43.739Z,4.20
2023-04-24T11:14:29.477Z,4.32
2023-04-24T11:20:40.530Z,4.10
2023-04-24T11:27:06.277Z,4.45
2023-04-24T11:33:40.498Z,5.95
2023-04-24T11:36:15.487Z,5.10
2023-04-24T11:38:43.700Z,4.30
2023-04-24T11:41:28.200Z,5.60
2023-04-24T11:44:12.272Z,4.75
2023-04-24T11:46:51.519Z,4.65
2023-04-24T11:49:29.993Z,4.70
2023-04-24T11:52:01.106Z,6.13
2023-04-24T11:54:45.774Z,4.32
2023-04-24T11:57:14.084Z,4.30
2023-04-24T11:59:49.449Z,4.43
2023-04-24T12:02:52.974Z,4.40
2023-04-24T12:05:37.509Z,5.13
2023-04-24T12:08:25.757Z,4.28
2023-04-24T12:11:13.073Z,4.85
2023-04-24T12:14:19.370Z,4.22
2023-04-24T12:17:05.239Z,4.55
2023-04-24T12:19:34.777Z,4.47
2023-04-24T12:22:20.276Z,5.07
2023-04-24T12:25:11.883Z,4.63
2023-04-24T12:27:45.919Z,3.92
2023-04-24T12:30:32.905Z,4.63
2023-04-24T12:33:12.487Z,4.95
2023-04-24T12:35:52.864Z,4.50
2023-04-24T12:38:44.821Z,4.30
2023-04-24T12:41:25.481Z,4.30
2023-04-24T12:44:12.097Z,4.43
2023-04-24T12:46:51.914Z,4.38
2023-04-24T12:49:30.678Z,4.78
2023-04-24T12:52:40.143Z,4.57
2023-04-24T12:55:27.568Z,4.15
2023-04-24T12:58:04.090Z,4.53
2023-04-24T13:01:04.942Z,4.90
2023-04-24T13:03:50.147Z,5.07
2023-04-24T13:06:19.351Z,4.35
2023-04-24T13:08:59.716Z,4.22
2023-04-24T13:11:34.538Z,4.25
2023-04-24T13:14:22.990Z,4.97
2023-04-24T13:17:00.495Z,4.13
2023-04-24T13:20:00.236Z,5.45
2023-04-24T13:22:50.506Z,4.07
2023-04-24T13:25:36.780Z,3.72
2023-04-24T13:28:05.647Z,4.53
2023-04-24T13:30:33.938Z,5.13
2023-04-24T13:33:04.784Z,6.18
2023-04-24T13:35:33.223Z,4.90
2023-04-24T13:38:17.222Z,5.25
2023-04-24T13:40:50.895Z,4.05
2023-04-24T13:43:26.446Z,5.15
2023-04-24T13:45:55.184Z,4.97
2023-04-24T13:48:23.338Z,5.38
2023-04-24T13:50:53.952Z,4.65
2023-04-24T13:53:30.271Z,4.70
2023-04-24T13:56:06.991Z,4.28
2023-04-24T13:58:42.823Z,4.82
2023-04-24T14:01:13.475Z,4.20
2023-04-24T14:03:45.935Z,4.50
2023-04-24T14:06:13.970Z,5.07
2023-04-24T14:08:47.507Z,4.65
2023-04-24T14:11:18.571Z,5.65
2023-04-24T14:13:53.470Z,5.25
2023-04-24T14:16:40.357Z,4.43
2023-04-24T14:19:10.416Z,5.22
2023-04-24T14:21:43.975Z,5.40
2023-04-24T14:24:12.809Z,4.97
2023-04-24T14:26:43.227Z,6.40
2023-04-24T14:29:20.078Z,5.10
2023-04-24T14:32:03.943Z,5.22
2023-04-24T14:34:36.107Z,5.97
2023-04-24T14:37:03.859Z,5.07
2023-04-24T14:39:34.029Z,6.57
2023-04-24T14:42:02.816Z,5.28
2023-04-24T14:44:39.441Z,4.75
2023-04-24T14:47:09.370Z,5.75
2023-04-24T14:49:42.967Z,5.15
2023-04-24T14:52:15.927Z,5.82
2023-04-24T14:54:51.963Z,5.60
2023-04-24T14:59:47.068Z,5.43
2023-04-24T15:02:15.946Z,5.07
2023-04-24T15:04:44.418Z,5.65
2023-04-24T15:07:12.686Z,5.35
2023-04-24T15:09:44.435Z,4.88
2023-04-24T15:12:16.632Z,6.68
2023-04-24T15:14:44.495Z,5.40
2023-04-24T15:17:12.043Z,4.78
2023-04-24T15:19:45.386Z,5.47
2023-04-24T15:22:16.046Z,5.63
2023-04-24T15:24:43.344Z,5.43
2023-04-24T15:27:14.159Z,6.28
2023-04-24T15:29:49.213Z,5.15
2023-04-24T15:32:22.487Z,5.30
2023-04-24T15:34:56.835Z,5.00
2023-04-24T15:37:32.576Z,4.78
2023-04-24T15:40:00.848Z,5.40
2023-04-24T15:42:32.703Z,4.60
2023-04-24T15:45:00.297Z,4.90
2023-04-24T15:47:35.902Z,5.63
2023-04-24T15:50:05.864Z,5.53
2023-04-24T15:52:32.972Z,5.85
2023-04-24T15:55:00.541Z,5.22
2023-04-24T15:57:30.981Z,5.22
2023-04-24T15:59:59.988Z,4.32
2023-04-24T16:02:28.377Z,4.20
2023-04-24T16:04:59.105Z,5.18
2023-04-24T16:07:30.140Z,5.03
2023-04-24T16:10:03.877Z,5.53
2023-04-24T16:12:39.519Z,5.15
2023-04-24T16:15:09.061Z,5.45
2023-04-24T16:17:38.712Z,4.97
2023-04-24T16:20:08.715Z,5.80
2023-04-24T16:22:36.503Z,4.72
2023-04-24T16:25:03.904Z,4.90
2023-04-24T16:27:31.244Z,5.70
2023-04-24T16:30:04.874Z,5.47
2023-04-24T16:32:32.482Z,6.03
2023-04-24T16:34:59.767Z,5.30
2023-04-24T16:37:31.151Z,5.25
2023-04-24T16:39:58.689Z,5.25
2023-04-24T16:42:29.140Z,6.18
2023-04-24T16:44:56.518Z,5.90
2023-04-24T16:47:27.547Z,5.75
2023-04-24T16:49:58.186Z,6.20
2023-04-24T16:52:25.998Z,5.32
2023-04-24T16:55:07.419Z,5.55
2023-04-24T16:57:38.396Z,5.03
2023-04-24T17:00:06.959Z,5.93
2023-04-24T17:02:36.780Z,4.90
2023-04-24T17:05:04.723Z,6.13
2023-04-24T17:07:41.816Z,5.50
2023-04-24T17:10:15.117Z,5.63
2023-04-24T17:12:42.707Z,4.40
2023-04-24T17:15:13.102Z,5.80
2023-04-24T17:17:44.661Z,6.03
2023-04-24T17:20:21.960Z,5.32
2023-04-24T17:22:57.880Z,5.25
2023-04-24T17:25:32.830Z,5.18
2023-04-24T17:28:32.367Z,6.45
2023-04-24T17:31:08.609Z,5.30
2023-04-24T17:33:44.669Z,5.45
2023-04-24T17:36:26.224Z,5.25
2023-04-24T17:38:54.515Z,5.90
2023-04-24T17:41:30.179Z,5.72
2023-04-24T17:44:06.343Z,5.68
2023-04-24T17:46:37.943Z,5.25
2023-04-24T17:49:08.702Z,5.25
2023-04-24T17:51:36.135Z,6.50
2023-04-24T17:54:07.994Z,5.78
2023-04-24T17:56:38.682Z,5.25
2023-04-24T17:59:11.350Z,5.32
2023-04-24T18:01:38.953Z,5.20
2023-04-24T18:04:09.380Z,5.72
2023-04-24T18:06:41.030Z,5.93
2023-04-24T18:09:44.412Z,6.45
2023-04-24T18:14:43.528Z,6.75
2023-04-24T18:17:13.442Z,6.95
2023-04-24T18:19:40.952Z,7.10
2023-04-24T18:22:08.522Z,7.18
2023-04-24T18:24:40.315Z,7.72
2023-04-24T18:27:07.842Z,8.52
2023-04-24T18:29:35.092Z,6.93
2023-04-24T18:32:05.929Z,6.35
2023-04-24T18:34:36.658Z,7.22
2023-04-24T18:37:04.218Z,7.75
2023-04-24T18:39:35.340Z,7.43
2023-04-24T18:42:02.888Z,9.02
2023-04-24T18:44:30.149Z,9.23
2023-04-24T18:46:57.577Z,8.07
2023-04-24T18:49:28.538Z,7.22
2023-04-24T18:51:56.450Z,6.85
2023-04-24T18:54:27.335Z,9.07
2023-04-24T18:57:00.244Z,7.72
2023-04-24T18:59:27.990Z,8.13
2023-04-24T19:01:55.452Z,7.47
2023-04-24T19:04:23.151Z,7.63
2023-04-24T19:06:50.590Z,7.95
2023-04-24T19:09:24.717Z,8.80
2023-04-24T19:11:55.658Z,8.07
2023-04-24T19:14:26.669Z,8.10
2023-04-24T19:17:01.911Z,6.60
2023-04-24T19:19:33.024Z,7.32
2023-04-24T19:22:07.879Z,7.03
2023-04-24T19:24:40.887Z,7.35
2023-04-24T19:27:08.848Z,8.07
2023-04-24T19:29:44.719Z,8.50
2023-04-24T19:32:17.664Z,7.85
2023-04-24T19:34:50.776Z,7.43
2023-04-24T19:37:19.707Z,7.75
2023-04-24T19:39:57.491Z,7.38
2023-04-24T19:42:42.078Z,6.85
2023-04-24T19:45:13.271Z,6.28
2023-04-24T19:47:43.765Z,7.15
2023-04-24T19:50:17.841Z,6.53
2023-04-24T19:52:45.502Z,6.65
2023-04-24T19:55:17.978Z,6.53
2023-04-24T19:58:17.875Z,6.93
2023-04-24T20:00:59.656Z,6.63
2023-04-24T20:06:25.760Z,6.05
2023-04-24T20:11:59.602Z,6.05
2023-04-24T20:14:41.075Z,6.68
2023-04-24T20:17:10.871Z,5.88
2023-04-24T20:19:46.585Z,6.22
2023-04-24T20:22:22.698Z,6.57
2023-04-24T20:24:52.518Z,6.07
2023-04-24T20:27:22.345Z,6.05
2023-04-24T20:29:54.682Z,6.88
2023-04-24T20:32:24.818Z,6.65
2023-04-24T20:34:52.943Z,6.15
2023-04-24T20:37:22.066Z,6.72
2023-04-24T20:39:58.543Z,6.13
2023-04-24T20:42:29.276Z,5.72
2023-04-24T20:44:58.856Z,5.90
2023-04-24T20:47:26.533Z,6.25
2023-04-24T20:49:56.146Z,6.60
2023-04-24T20:52:29.240Z,6.90
2023-04-24T20:54:56.817Z,6.80
2023-04-24T20:57:24.031Z,6.50
2023-04-24T20:59:51.588Z,7.55
2023-04-24T21:02:23.605Z,6.22
2023-04-24T21:04:53.598Z,7.47
2023-04-24T21:07:21.521Z,6.80
2023-04-24T21:09:51.710Z,6.57
2023-04-24T21:12:24.474Z,8.15
2023-04-24T21:14:54.012Z,6.55
2023-04-24T21:17:24.513Z,6.43
2023-04-24T21:19:56.653Z,6.25
2023-04-24T21:22:27.810Z,6.15
2023-04-24T21:24:57.402Z,6.57
2023-04-24T21:27:27.101Z,6.63
2023-04-24T21:29:54.646Z,6.35
2023-04-24T21:32:30.066Z,6.10
2023-04-24T21:35:04.319Z,6.95
2023-04-24T21:37:36.529Z,6.75
2023-04-24T21:40:07.062Z,6.60
2023-04-24T21:42:34.224Z,6.80
2023-04-24T21:45:02.394Z,6.50
2023-04-24T21:47:29.518Z,6.50
2023-04-24T21:49:56.723Z,6.80
2023-04-24T21:52:23.972Z,6.47
2023-04-24T21:54:51.012Z,7.05
2023-04-24T21:57:18.096Z,6.57
2023-04-24T21:59:45.763Z,6.72
2023-04-24T22:02:15.378Z,6.93
2023-04-24T22:04:43.612Z,6.80
2023-04-24T22:07:11.131Z,7.82
2023-04-24T22:09:40.562Z,8.27
2023-04-24T22:12:07.794Z,7.13
2023-04-24T22:14:39.005Z,8.13
2023-04-24T22:17:06.116Z,6.45
2023-04-24T22:19:33.572Z,6.75
2023-04-24T22:22:00.732Z,6.88
2023-04-24T22:24:28.622Z,6.45
2023-04-24T22:26:55.846Z,7.70
2023-04-24T22:29:22.908Z,7.43
2023-04-24T22:31:50.610Z,7.05
2023-04-24T22:34:18.668Z,7.57
2023-04-24T22:36:46.249Z,7.72
2023-04-24T22:39:15.927Z,7.13
2023-04-24T22:41:44.494Z,7.45
2023-04-24T22:44:11.932Z,7.30
2023-04-24T22:46:40.074Z,7.03
2023-04-24T22:49:07.668Z,7.60
2023-04-24T22:51:35.611Z,7.07
2023-04-24T22:54:04.869Z,8.07
2023-04-24T22:56:32.534Z,7.32
2023-04-24T22:59:00.946Z,7.15
2023-04-24T23:01:28.195Z,7.78
2023-04-24T23:03:55.652Z,7.53
2023-04-24T23:06:22.741Z,6.72
2023-04-24T23:08:49.780Z,7.28
2023-04-24T23:11:17.235Z,7.45
2023-04-24T23:13:44.635Z,7.63
2023-04-24T23:16:11.831Z,8.27
2023-04-24T23:18:39.167Z,7.13
2023-04-24T23:21:06.775Z,7.80
2023-04-24T23:23:34.152Z,8.23
2023-04-24T23:26:01.602Z,7.88
2023-04-24T23:28:28.871Z,8.15
2023-04-24T23:30:56.188Z,7.95
2023-04-24T23:33:23.212Z,8.32
2023-04-24T23:35:50.382Z,8.60
2023-04-24T23:38:20.707Z,8.75
2023-04-24T23:40:48.017Z,8.60
2023-04-24T23:43:15.107Z,9.90
2023-04-24T23:45:42.302Z,9.05
2023-04-24T23:48:09.480Z,8.55
2023-04-24T23:50:36.729Z,7.78
2023-04-24T23:53:04.302Z,8.77
2023-04-24T23:55:31.549Z,9.10
2023-04-24T23:57:58.753Z,8.30
